DIPPU EDWE-EDWR

Flight info

Callsign DIPPU
Flight time 0h 11m
Altitude 2500
Route VFR
Aircraft BE38/L-S/S

Departure

Time 2026-05-05 08:39
Airport Emden Airport (EDWE)

Arrival

Time 2026-05-05 08:50
Airport Borkum Airport (EDWR)
Time Latitude Longitude Altitude Speed Heading
2026-05-05 08:31 53.38987 7.23213 3 ft 0 kts 104°
2026-05-05 08:35 53.38990 7.23224 3 ft 3 kts 22°
2026-05-05 08:35 53.38989 7.23162 4 ft 11 kts 257°
2026-05-05 08:35 53.38962 7.22988 3 ft 20 kts 254°
2026-05-05 08:35 53.38926 7.22728 3 ft 26 kts 266°
2026-05-05 08:36 53.38993 7.22504 1 ft 23 kts 302°
2026-05-05 08:36 53.38955 7.22259 1 ft 25 kts 251°
2026-05-05 08:36 53.38902 7.21964 1 ft 12 kts 265°
2026-05-05 08:36 53.38902 7.21954 1 ft 0 kts 266°
2026-05-05 08:37 53.38902 7.21950 1 ft 4 kts 265°
2026-05-05 08:37 53.38905 7.21851 3 ft 11 kts 279°
2026-05-05 08:37 53.38952 7.21779 4 ft 8 kts 75°
2026-05-05 08:38 53.38953 7.21784 4 ft 0 kts 75°
2026-05-05 08:38 53.38977 7.21934 1 ft 42 kts 74°
2026-05-05 08:38 53.39127 7.22775 25 ft 101 kts 69°
2026-05-05 08:38 53.39359 7.24095 259 ft 122 kts 70°
2026-05-05 08:39 53.39869 7.25176 707 ft 129 kts 22°
2026-05-05 08:39 53.40814 7.25335 997 ft 146 kts 351°
2026-05-05 08:39 53.41794 7.24668 1262 ft 157 kts 339°
2026-05-05 08:39 53.42784 7.23822 1521 ft 164 kts 329°
2026-05-05 08:40 53.43700 7.22565 1663 ft 174 kts 321°
2026-05-05 08:40 53.44581 7.21107 1789 ft 182 kts 311°
2026-05-05 08:40 53.45321 7.19351 1900 ft 188 kts 308°
2026-05-05 08:40 53.46034 7.17458 1957 ft 195 kts 306°
2026-05-05 08:41 53.46747 7.15488 1983 ft 200 kts 306°
2026-05-05 08:41 53.47476 7.13475 1992 ft 203 kts 305°
2026-05-05 08:41 53.48216 7.11433 1988 ft 206 kts 305°
2026-05-05 08:41 53.48958 7.09386 1991 ft 204 kts 305°
2026-05-05 08:42 53.49684 7.07371 1993 ft 201 kts 305°
2026-05-05 08:42 53.50408 7.05380 1994 ft 199 kts 305°
2026-05-05 08:42 53.51112 7.03389 2001 ft 198 kts 305°
2026-05-05 08:42 53.51808 7.01400 2002 ft 197 kts 305°
2026-05-05 08:43 53.52515 6.99433 2003 ft 196 kts 305°
2026-05-05 08:43 53.53216 6.97514 2003 ft 195 kts 306°
2026-05-05 08:43 53.53934 6.95548 2006 ft 195 kts 305°
2026-05-05 08:43 53.54623 6.93616 2009 ft 196 kts 306°
2026-05-05 08:44 53.55314 6.91638 2009 ft 196 kts 305°
2026-05-05 08:44 53.56013 6.89658 2011 ft 197 kts 305°
2026-05-05 08:44 53.56569 6.87534 2007 ft 201 kts 289°
2026-05-05 08:44 53.56917 6.85252 2011 ft 202 kts 288°
2026-05-05 08:45 53.57177 6.82951 2008 ft 196 kts 279°
2026-05-05 08:45 53.57141 6.80675 1739 ft 194 kts 266°
2026-05-05 08:45 53.56973 6.78511 1432 ft 177 kts 265°
2026-05-05 08:45 53.56902 6.76523 1091 ft 163 kts 283°
2026-05-05 08:46 53.57271 6.74896 795 ft 136 kts 317°
2026-05-05 08:46 53.57926 6.73944 512 ft 117 kts 332°
2026-05-05 08:46 53.58532 6.73158 232 ft 104 kts 332°
2026-05-05 08:46 53.59062 6.72327 27 ft 99 kts 311°
2026-05-05 08:47 53.59429 6.71586 4 ft 79 kts 311°
2026-05-05 08:47 53.59891 6.70744 155 ft 112 kts 325°
2026-05-05 08:47 53.60526 6.69665 304 ft 140 kts 314°
2026-05-05 08:47 53.61189 6.68450 665 ft 148 kts 319°
2026-05-05 08:48 53.61981 6.67012 352 ft 191 kts 316°
2026-05-05 08:48 53.62567 6.65706 1890 ft 78 kts 262°
2026-05-05 08:48 53.62041 6.65422 1416 ft 133 kts 129°
2026-05-05 08:48 53.61462 6.66789 864 ft 143 kts 112°
2026-05-05 08:49 53.60948 6.68199 637 ft 138 kts 114°
2026-05-05 08:49 53.60442 6.69522 393 ft 130 kts 116°
2026-05-05 08:49 53.59901 6.70631 48 ft 121 kts 122°
2026-05-05 08:49 53.59448 6.71551 4 ft 83 kts 130°
2026-05-05 08:50 53.59191 6.72061 5 ft 35 kts 127°
2026-05-05 08:50 53.59080 6.72095 5 ft 19 kts 244°
2026-05-05 08:50 53.59158 6.71905 5 ft 22 kts 310°
2026-05-05 08:50 53.59265 6.71693 5 ft 26 kts 308°
2026-05-05 08:51 53.59384 6.71449 6 ft 29 kts 310°
2026-05-05 08:51 53.59520 6.71180 6 ft 32 kts 309°
2026-05-05 08:51 53.59666 6.70884 7 ft 34 kts 312°
2026-05-05 08:51 53.59756 6.70596 7 ft 19 kts 241°
2026-05-05 08:52 53.59760 6.70379 7 ft 23 kts 325°
2026-05-05 08:52 53.59789 6.70265 7 ft 0 kts 112°